sensor_id;sensor_type;location;lat;lon;timestamp;P1;durP1;ratioP1;P2;durP2;ratioP2
15126;SDS011;7664;52.008;4.748;2023-12-22T00:01:59;9.63;;;2.20;;
15126;SDS011;7664;52.008;4.748;2023-12-22T00:04:27;14.80;;;3.83;;
15126;SDS011;7664;52.008;4.748;2023-12-22T00:06:56;15.93;;;2.60;;
15126;SDS011;7664;52.008;4.748;2023-12-22T00:09:24;17.80;;;3.17;;
15126;SDS011;7664;52.008;4.748;2023-12-22T00:11:52;19.92;;;2.95;;
15126;SDS011;7664;52.008;4.748;2023-12-22T00:14:20;14.57;;;2.05;;
15126;SDS011;7664;52.008;4.748;2023-12-22T00:16:50;19.60;;;2.90;;
15126;SDS011;7664;52.008;4.748;2023-12-22T00:19:18;15.73;;;2.90;;
15126;SDS011;7664;52.008;4.748;2023-12-22T00:21:46;15.13;;;2.90;;
15126;SDS011;7664;52.008;4.748;2023-12-22T00:24:16;12.02;;;2.20;;
15126;SDS011;7664;52.008;4.748;2023-12-22T00:26:44;14.15;;;2.60;;
15126;SDS011;7664;52.008;4.748;2023-12-22T00:29:12;9.88;;;2.30;;
15126;SDS011;7664;52.008;4.748;2023-12-22T00:31:42;14.35;;;3.17;;
15126;SDS011;7664;52.008;4.748;2023-12-22T00:34:10;16.10;;;2.50;;
15126;SDS011;7664;52.008;4.748;2023-12-22T00:36:38;18.90;;;2.70;;
15126;SDS011;7664;52.008;4.748;2023-12-22T00:39:07;17.45;;;3.45;;
15126;SDS011;7664;52.008;4.748;2023-12-22T00:41:36;12.48;;;3.20;;
15126;SDS011;7664;52.008;4.748;2023-12-22T00:44:05;18.67;;;2.60;;
15126;SDS011;7664;52.008;4.748;2023-12-22T00:46:33;16.23;;;3.15;;
15126;SDS011;7664;52.008;4.748;2023-12-22T00:49:01;11.68;;;3.10;;
15126;SDS011;7664;52.008;4.748;2023-12-22T00:51:29;14.18;;;2.95;;
15126;SDS011;7664;52.008;4.748;2023-12-22T00:53:57;11.40;;;3.05;;
15126;SDS011;7664;52.008;4.748;2023-12-22T00:56:26;10.57;;;2.60;;
15126;SDS011;7664;52.008;4.748;2023-12-22T00:58:55;11.85;;;2.45;;
15126;SDS011;7664;52.008;4.748;2023-12-22T01:01:36;11.88;;;2.10;;
15126;SDS011;7664;52.008;4.748;2023-12-22T01:04:05;19.88;;;3.65;;
15126;SDS011;7664;52.008;4.748;2023-12-22T01:06:36;20.38;;;3.15;;
15126;SDS011;7664;52.008;4.748;2023-12-22T01:09:05;12.15;;;2.72;;
15126;SDS011;7664;52.008;4.748;2023-12-22T01:11:33;14.40;;;2.30;;
15126;SDS011;7664;52.008;4.748;2023-12-22T01:14:03;17.02;;;2.05;;
15126;SDS011;7664;52.008;4.748;2023-12-22T01:16:32;17.08;;;2.60;;
15126;SDS011;7664;52.008;4.748;2023-12-22T01:19:00;9.48;;;1.65;;
15126;SDS011;7664;52.008;4.748;2023-12-22T01:21:29;9.35;;;1.90;;
15126;SDS011;7664;52.008;4.748;2023-12-22T01:23:57;13.32;;;2.13;;
15126;SDS011;7664;52.008;4.748;2023-12-22T01:26:25;9.80;;;1.95;;
15126;SDS011;7664;52.008;4.748;2023-12-22T01:28:53;15.13;;;2.30;;
15126;SDS011;7664;52.008;4.748;2023-12-22T01:31:23;9.38;;;2.05;;
15126;SDS011;7664;52.008;4.748;2023-12-22T01:33:51;9.88;;;2.33;;
15126;SDS011;7664;52.008;4.748;2023-12-22T01:36:19;12.00;;;2.40;;
15126;SDS011;7664;52.008;4.748;2023-12-22T01:38:47;8.27;;;2.30;;
15126;SDS011;7664;52.008;4.748;2023-12-22T01:41:15;10.82;;;2.65;;
15126;SDS011;7664;52.008;4.748;2023-12-22T01:43:43;14.73;;;2.92;;
15126;SDS011;7664;52.008;4.748;2023-12-22T01:46:11;11.35;;;2.70;;
15126;SDS011;7664;52.008;4.748;2023-12-22T01:48:42;13.75;;;2.30;;
15126;SDS011;7664;52.008;4.748;2023-12-22T01:51:11;11.05;;;2.00;;
15126;SDS011;7664;52.008;4.748;2023-12-22T01:53:39;10.45;;;1.60;;
15126;SDS011;7664;52.008;4.748;2023-12-22T01:56:07;17.08;;;2.10;;
15126;SDS011;7664;52.008;4.748;2023-12-22T01:58:36;9.82;;;2.03;;
15126;SDS011;7664;52.008;4.748;2023-12-22T02:01:15;11.95;;;2.28;;
15126;SDS011;7664;52.008;4.748;2023-12-22T02:03:46;8.77;;;1.95;;
15126;SDS011;7664;52.008;4.748;2023-12-22T02:06:16;12.25;;;2.28;;
15126;SDS011;7664;52.008;4.748;2023-12-22T02:08:45;10.48;;;1.88;;
15126;SDS011;7664;52.008;4.748;2023-12-22T02:11:14;10.30;;;2.05;;
15126;SDS011;7664;52.008;4.748;2023-12-22T02:13:43;12.07;;;2.42;;
15126;SDS011;7664;52.008;4.748;2023-12-22T02:16:16;20.90;;;2.30;;
15126;SDS011;7664;52.008;4.748;2023-12-22T02:18:50;8.48;;;2.28;;
15126;SDS011;7664;52.008;4.748;2023-12-22T02:21:20;10.50;;;2.97;;
15126;SDS011;7664;52.008;4.748;2023-12-22T02:23:50;12.15;;;2.78;;
15126;SDS011;7664;52.008;4.748;2023-12-22T02:26:20;14.73;;;2.45;;
15126;SDS011;7664;52.008;4.748;2023-12-22T02:28:55;17.85;;;3.53;;
15126;SDS011;7664;52.008;4.748;2023-12-22T02:31:27;14.82;;;3.10;;
15126;SDS011;7664;52.008;4.748;2023-12-22T02:34:03;8.45;;;1.73;;
15126;SDS011;7664;52.008;4.748;2023-12-22T02:36:35;11.25;;;2.35;;
15126;SDS011;7664;52.008;4.748;2023-12-22T02:39:08;16.55;;;3.53;;
15126;SDS011;7664;52.008;4.748;2023-12-22T02:41:37;12.55;;;2.83;;
15126;SDS011;7664;52.008;4.748;2023-12-22T02:44:06;16.10;;;2.28;;
15126;SDS011;7664;52.008;4.748;2023-12-22T02:46:35;10.73;;;3.10;;
15126;SDS011;7664;52.008;4.748;2023-12-22T02:49:03;11.02;;;2.10;;
15126;SDS011;7664;52.008;4.748;2023-12-22T02:51:31;17.20;;;3.80;;
15126;SDS011;7664;52.008;4.748;2023-12-22T02:53:59;7.65;;;1.60;;
15126;SDS011;7664;52.008;4.748;2023-12-22T02:56:29;11.93;;;2.40;;
15126;SDS011;7664;52.008;4.748;2023-12-22T02:58:57;6.97;;;2.20;;
15126;SDS011;7664;52.008;4.748;2023-12-22T03:01:25;12.40;;;3.08;;
15126;SDS011;7664;52.008;4.748;2023-12-22T03:03:53;12.43;;;2.30;;
15126;SDS011;7664;52.008;4.748;2023-12-22T03:06:21;9.95;;;2.63;;
15126;SDS011;7664;52.008;4.748;2023-12-22T03:08:49;9.30;;;2.08;;
15126;SDS011;7664;52.008;4.748;2023-12-22T03:11:18;11.85;;;2.35;;
15126;SDS011;7664;52.008;4.748;2023-12-22T03:13:47;13.20;;;2.63;;
15126;SDS011;7664;52.008;4.748;2023-12-22T03:16:15;8.73;;;2.05;;
15126;SDS011;7664;52.008;4.748;2023-12-22T03:18:43;16.77;;;3.08;;
15126;SDS011;7664;52.008;4.748;2023-12-22T03:21:15;10.45;;;2.25;;
15126;SDS011;7664;52.008;4.748;2023-12-22T03:23:45;12.30;;;2.72;;
15126;SDS011;7664;52.008;4.748;2023-12-22T03:26:13;12.63;;;1.92;;
15126;SDS011;7664;52.008;4.748;2023-12-22T03:28:41;6.78;;;2.40;;
15126;SDS011;7664;52.008;4.748;2023-12-22T03:31:11;11.10;;;2.00;;
15126;SDS011;7664;52.008;4.748;2023-12-22T03:33:39;10.65;;;2.35;;
15126;SDS011;7664;52.008;4.748;2023-12-22T03:36:07;8.20;;;2.28;;
15126;SDS011;7664;52.008;4.748;2023-12-22T03:38:36;9.35;;;2.85;;
15126;SDS011;7664;52.008;4.748;2023-12-22T03:41:04;11.57;;;1.83;;
15126;SDS011;7664;52.008;4.748;2023-12-22T03:43:33;10.13;;;2.85;;
15126;SDS011;7664;52.008;4.748;2023-12-22T03:46:01;11.80;;;2.30;;
15126;SDS011;7664;52.008;4.748;2023-12-22T03:48:30;17.50;;;3.65;;
15126;SDS011;7664;52.008;4.748;2023-12-22T03:50:59;12.43;;;2.67;;
15126;SDS011;7664;52.008;4.748;2023-12-22T03:53:27;15.40;;;3.47;;
15126;SDS011;7664;52.008;4.748;2023-12-22T03:55:55;9.15;;;1.85;;
15126;SDS011;7664;52.008;4.748;2023-12-22T03:58:23;10.48;;;2.05;;
15126;SDS011;7664;52.008;4.748;2023-12-22T04:00:52;13.98;;;2.65;;
15126;SDS011;7664;52.008;4.748;2023-12-22T04:03:21;15.05;;;2.72;;
15126;SDS011;7664;52.008;4.748;2023-12-22T04:05:50;11.23;;;2.17;;
15126;SDS011;7664;52.008;4.748;2023-12-22T04:08:18;8.25;;;1.80;;
15126;SDS011;7664;52.008;4.748;2023-12-22T04:10:47;7.55;;;2.55;;
15126;SDS011;7664;52.008;4.748;2023-12-22T04:13:15;10.60;;;2.08;;
15126;SDS011;7664;52.008;4.748;2023-12-22T04:15:43;5.93;;;1.60;;
15126;SDS011;7664;52.008;4.748;2023-12-22T04:18:11;10.80;;;1.80;;
15126;SDS011;7664;52.008;4.748;2023-12-22T04:20:40;10.52;;;2.45;;
15126;SDS011;7664;52.008;4.748;2023-12-22T04:23:09;10.52;;;2.10;;
15126;SDS011;7664;52.008;4.748;2023-12-22T04:25:37;10.63;;;2.17;;
15126;SDS011;7664;52.008;4.748;2023-12-22T04:28:06;9.52;;;1.77;;
15126;SDS011;7664;52.008;4.748;2023-12-22T04:30:34;9.82;;;1.58;;
15126;SDS011;7664;52.008;4.748;2023-12-22T04:33:03;8.95;;;2.10;;
15126;SDS011;7664;52.008;4.748;2023-12-22T04:35:31;11.45;;;2.60;;
15126;SDS011;7664;52.008;4.748;2023-12-22T04:37:59;8.52;;;2.13;;
15126;SDS011;7664;52.008;4.748;2023-12-22T04:40:29;12.10;;;2.17;;
15126;SDS011;7664;52.008;4.748;2023-12-22T04:42:57;8.05;;;1.88;;
15126;SDS011;7664;52.008;4.748;2023-12-22T04:45:25;8.45;;;2.28;;
15126;SDS011;7664;52.008;4.748;2023-12-22T04:47:54;9.40;;;1.98;;
15126;SDS011;7664;52.008;4.748;2023-12-22T04:50:22;8.77;;;1.67;;
15126;SDS011;7664;52.008;4.748;2023-12-22T04:52:50;9.13;;;2.25;;
15126;SDS011;7664;52.008;4.748;2023-12-22T04:55:18;6.68;;;2.03;;
15126;SDS011;7664;52.008;4.748;2023-12-22T04:57:48;10.80;;;2.47;;
15126;SDS011;7664;52.008;4.748;2023-12-22T05:00:16;8.45;;;2.85;;
15126;SDS011;7664;52.008;4.748;2023-12-22T05:02:45;15.07;;;2.30;;
15126;SDS011;7664;52.008;4.748;2023-12-22T05:05:13;6.05;;;1.90;;
15126;SDS011;7664;52.008;4.748;2023-12-22T05:07:41;15.23;;;2.35;;
15126;SDS011;7664;52.008;4.748;2023-12-22T05:10:09;8.52;;;1.85;;
15126;SDS011;7664;52.008;4.748;2023-12-22T05:12:37;15.00;;;3.70;;
15126;SDS011;7664;52.008;4.748;2023-12-22T05:15:08;7.28;;;1.85;;
15126;SDS011;7664;52.008;4.748;2023-12-22T05:17:36;13.70;;;2.20;;
15126;SDS011;7664;52.008;4.748;2023-12-22T05:20:07;9.43;;;1.98;;
15126;SDS011;7664;52.008;4.748;2023-12-22T05:22:36;10.15;;;2.30;;
15126;SDS011;7664;52.008;4.748;2023-12-22T05:25:05;10.02;;;2.33;;
15126;SDS011;7664;52.008;4.748;2023-12-22T05:27:36;12.32;;;3.13;;
15126;SDS011;7664;52.008;4.748;2023-12-22T05:30:05;6.15;;;2.28;;
15126;SDS011;7664;52.008;4.748;2023-12-22T05:32:36;15.77;;;2.33;;
15126;SDS011;7664;52.008;4.748;2023-12-22T05:35:04;10.25;;;1.92;;
15126;SDS011;7664;52.008;4.748;2023-12-22T05:37:33;14.77;;;2.92;;
15126;SDS011;7664;52.008;4.748;2023-12-22T05:40:01;10.85;;;2.65;;
15126;SDS011;7664;52.008;4.748;2023-12-22T05:42:30;12.32;;;3.08;;
15126;SDS011;7664;52.008;4.748;2023-12-22T05:44:58;13.02;;;2.45;;
15126;SDS011;7664;52.008;4.748;2023-12-22T05:47:27;10.02;;;2.63;;
15126;SDS011;7664;52.008;4.748;2023-12-22T05:49:55;8.52;;;2.17;;
15126;SDS011;7664;52.008;4.748;2023-12-22T05:52:24;14.20;;;3.33;;
15126;SDS011;7664;52.008;4.748;2023-12-22T05:54:52;17.25;;;3.92;;
15126;SDS011;7664;52.008;4.748;2023-12-22T05:57:21;15.52;;;3.58;;
15126;SDS011;7664;52.008;4.748;2023-12-22T05:59:49;14.27;;;4.13;;
15126;SDS011;7664;52.008;4.748;2023-12-22T06:02:17;14.48;;;3.45;;
15126;SDS011;7664;52.008;4.748;2023-12-22T06:04:46;18.58;;;3.60;;
15126;SDS011;7664;52.008;4.748;2023-12-22T06:07:15;13.50;;;3.65;;
15126;SDS011;7664;52.008;4.748;2023-12-22T06:09:43;16.63;;;3.40;;
15126;SDS011;7664;52.008;4.748;2023-12-22T06:12:11;19.13;;;4.68;;
15126;SDS011;7664;52.008;4.748;2023-12-22T06:14:39;17.33;;;4.38;;
15126;SDS011;7664;52.008;4.748;2023-12-22T06:17:07;14.50;;;3.97;;
15126;SDS011;7664;52.008;4.748;2023-12-22T06:19:36;21.15;;;5.63;;
15126;SDS011;7664;52.008;4.748;2023-12-22T06:22:06;21.55;;;4.88;;
15126;SDS011;7664;52.008;4.748;2023-12-22T06:24:34;15.15;;;3.78;;
15126;SDS011;7664;52.008;4.748;2023-12-22T06:27:03;15.63;;;4.55;;
15126;SDS011;7664;52.008;4.748;2023-12-22T06:29:33;20.92;;;5.47;;
15126;SDS011;7664;52.008;4.748;2023-12-22T06:32:01;19.55;;;5.03;;
15126;SDS011;7664;52.008;4.748;2023-12-22T06:34:32;27.40;;;5.38;;
15126;SDS011;7664;52.008;4.748;2023-12-22T06:37:00;14.57;;;4.28;;
15126;SDS011;7664;52.008;4.748;2023-12-22T06:39:30;17.08;;;4.90;;
15126;SDS011;7664;52.008;4.748;2023-12-22T06:41:58;21.13;;;4.07;;
15126;SDS011;7664;52.008;4.748;2023-12-22T06:44:26;21.80;;;4.75;;
15126;SDS011;7664;52.008;4.748;2023-12-22T06:46:56;18.35;;;4.97;;
15126;SDS011;7664;52.008;4.748;2023-12-22T06:49:24;16.65;;;4.35;;
15126;SDS011;7664;52.008;4.748;2023-12-22T06:51:52;22.52;;;5.57;;
15126;SDS011;7664;52.008;4.748;2023-12-22T06:54:20;24.52;;;5.55;;
15126;SDS011;7664;52.008;4.748;2023-12-22T06:56:51;19.48;;;5.07;;
15126;SDS011;7664;52.008;4.748;2023-12-22T06:59:19;18.48;;;4.85;;
15126;SDS011;7664;52.008;4.748;2023-12-22T07:01:49;19.40;;;4.95;;
15126;SDS011;7664;52.008;4.748;2023-12-22T07:04:32;21.23;;;4.80;;
15126;SDS011;7664;52.008;4.748;2023-12-22T07:07:00;23.80;;;4.63;;
15126;SDS011;7664;52.008;4.748;2023-12-22T07:09:31;15.57;;;4.68;;
15126;SDS011;7664;52.008;4.748;2023-12-22T07:12:01;19.42;;;5.20;;
15126;SDS011;7664;52.008;4.748;2023-12-22T07:14:30;21.88;;;5.30;;
15126;SDS011;7664;52.008;4.748;2023-12-22T07:17:01;17.90;;;4.88;;
15126;SDS011;7664;52.008;4.748;2023-12-22T07:19:29;25.58;;;4.50;;
15126;SDS011;7664;52.008;4.748;2023-12-22T07:21:58;21.52;;;4.25;;
15126;SDS011;7664;52.008;4.748;2023-12-22T07:24:28;13.60;;;3.40;;
15126;SDS011;7664;52.008;4.748;2023-12-22T07:26:56;15.82;;;3.90;;
15126;SDS011;7664;52.008;4.748;2023-12-22T07:29:26;14.70;;;4.07;;
15126;SDS011;7664;52.008;4.748;2023-12-22T07:31:54;18.13;;;4.53;;
15126;SDS011;7664;52.008;4.748;2023-12-22T07:34:22;15.90;;;4.15;;
15126;SDS011;7664;52.008;4.748;2023-12-22T07:36:54;19.25;;;4.85;;
15126;SDS011;7664;52.008;4.748;2023-12-22T07:39:32;19.80;;;4.28;;
15126;SDS011;7664;52.008;4.748;2023-12-22T07:42:02;17.70;;;3.97;;
15126;SDS011;7664;52.008;4.748;2023-12-22T07:44:34;11.50;;;3.85;;
15126;SDS011;7664;52.008;4.748;2023-12-22T07:47:02;15.88;;;4.85;;
15126;SDS011;7664;52.008;4.748;2023-12-22T07:49:31;17.52;;;3.47;;
15126;SDS011;7664;52.008;4.748;2023-12-22T07:51:59;19.17;;;4.65;;
15126;SDS011;7664;52.008;4.748;2023-12-22T07:54:32;20.33;;;4.30;;
15126;SDS011;7664;52.008;4.748;2023-12-22T07:57:00;14.38;;;3.47;;
15126;SDS011;7664;52.008;4.748;2023-12-22T07:59:28;14.02;;;3.65;;
15126;SDS011;7664;52.008;4.748;2023-12-22T08:01:59;16.52;;;4.60;;
15126;SDS011;7664;52.008;4.748;2023-12-22T08:04:27;13.13;;;3.47;;
15126;SDS011;7664;52.008;4.748;2023-12-22T08:06:56;18.27;;;4.30;;
15126;SDS011;7664;52.008;4.748;2023-12-22T08:09:24;14.07;;;3.95;;
15126;SDS011;7664;52.008;4.748;2023-12-22T08:11:52;16.02;;;3.33;;
15126;SDS011;7664;52.008;4.748;2023-12-22T08:14:22;14.93;;;3.15;;
15126;SDS011;7664;52.008;4.748;2023-12-22T08:16:50;16.30;;;3.38;;
15126;SDS011;7664;52.008;4.748;2023-12-22T08:19:22;10.68;;;2.70;;
15126;SDS011;7664;52.008;4.748;2023-12-22T08:22:00;18.73;;;3.65;;
15126;SDS011;7664;52.008;4.748;2023-12-22T08:24:33;12.98;;;2.85;;
15126;SDS011;7664;52.008;4.748;2023-12-22T08:27:01;8.82;;;2.70;;
15126;SDS011;7664;52.008;4.748;2023-12-22T08:29:30;11.57;;;3.05;;
15126;SDS011;7664;52.008;4.748;2023-12-22T08:31:59;9.43;;;2.50;;
15126;SDS011;7664;52.008;4.748;2023-12-22T08:34:29;6.88;;;1.85;;
15126;SDS011;7664;52.008;4.748;2023-12-22T08:36:57;10.05;;;2.40;;
15126;SDS011;7664;52.008;4.748;2023-12-22T08:39:27;18.83;;;3.28;;
15126;SDS011;7664;52.008;4.748;2023-12-22T08:41:55;6.18;;;2.38;;
15126;SDS011;7664;52.008;4.748;2023-12-22T08:44:24;6.28;;;2.08;;
15126;SDS011;7664;52.008;4.748;2023-12-22T08:46:52;7.30;;;2.53;;
15126;SDS011;7664;52.008;4.748;2023-12-22T08:49:20;10.90;;;2.60;;
15126;SDS011;7664;52.008;4.748;2023-12-22T08:51:50;8.50;;;2.15;;
15126;SDS011;7664;52.008;4.748;2023-12-22T08:54:18;9.32;;;1.67;;
15126;SDS011;7664;52.008;4.748;2023-12-22T08:56:46;7.00;;;1.65;;
15126;SDS011;7664;52.008;4.748;2023-12-22T08:59:15;5.75;;;1.50;;
15126;SDS011;7664;52.008;4.748;2023-12-22T09:01:43;8.15;;;2.28;;
15126;SDS011;7664;52.008;4.748;2023-12-22T09:04:11;5.05;;;1.33;;
15126;SDS011;7664;52.008;4.748;2023-12-22T09:06:39;8.10;;;2.17;;
15126;SDS011;7664;52.008;4.748;2023-12-22T09:09:10;9.10;;;2.20;;
15126;SDS011;7664;52.008;4.748;2023-12-22T09:11:38;7.80;;;1.70;;
15126;SDS011;7664;52.008;4.748;2023-12-22T09:14:06;7.25;;;2.15;;
15126;SDS011;7664;52.008;4.748;2023-12-22T09:16:36;6.35;;;1.77;;
15126;SDS011;7664;52.008;4.748;2023-12-22T09:19:05;15.30;;;1.95;;
15126;SDS011;7664;52.008;4.748;2023-12-22T09:21:34;11.25;;;1.95;;
15126;SDS011;7664;52.008;4.748;2023-12-22T09:24:02;3.78;;;1.52;;
15126;SDS011;7664;52.008;4.748;2023-12-22T09:26:32;5.68;;;1.33;;
15126;SDS011;7664;52.008;4.748;2023-12-22T09:29:00;3.10;;;1.20;;
15126;SDS011;7664;52.008;4.748;2023-12-22T09:31:28;5.13;;;1.15;;
15126;SDS011;7664;52.008;4.748;2023-12-22T09:33:56;4.00;;;1.23;;
15126;SDS011;7664;52.008;4.748;2023-12-22T09:36:24;7.78;;;1.40;;
15126;SDS011;7664;52.008;4.748;2023-12-22T09:38:52;6.75;;;1.38;;
15126;SDS011;7664;52.008;4.748;2023-12-22T09:41:21;4.55;;;1.30;;
15126;SDS011;7664;52.008;4.748;2023-12-22T09:43:50;5.13;;;1.38;;
15126;SDS011;7664;52.008;4.748;2023-12-22T09:46:22;6.55;;;1.60;;
15126;SDS011;7664;52.008;4.748;2023-12-22T09:48:53;2.72;;;1.23;;
15126;SDS011;7664;52.008;4.748;2023-12-22T09:51:22;7.68;;;1.48;;
15126;SDS011;7664;52.008;4.748;2023-12-22T09:53:50;6.53;;;1.52;;
15126;SDS011;7664;52.008;4.748;2023-12-22T09:56:20;8.38;;;1.20;;
15126;SDS011;7664;52.008;4.748;2023-12-22T09:58:51;5.35;;;1.20;;
15126;SDS011;7664;52.008;4.748;2023-12-22T10:01:22;4.72;;;1.10;;
15126;SDS011;7664;52.008;4.748;2023-12-22T10:03:51;7.00;;;1.35;;
15126;SDS011;7664;52.008;4.748;2023-12-22T10:06:20;8.55;;;1.88;;
15126;SDS011;7664;52.008;4.748;2023-12-22T10:08:48;8.55;;;1.38;;
15126;SDS011;7664;52.008;4.748;2023-12-22T10:11:18;4.47;;;1.70;;
15126;SDS011;7664;52.008;4.748;2023-12-22T10:13:48;3.92;;;1.23;;
15126;SDS011;7664;52.008;4.748;2023-12-22T10:16:20;6.55;;;1.75;;
15126;SDS011;7664;52.008;4.748;2023-12-22T10:18:49;3.60;;;1.25;;
15126;SDS011;7664;52.008;4.748;2023-12-22T10:21:17;2.47;;;0.90;;
15126;SDS011;7664;52.008;4.748;2023-12-22T10:23:45;5.35;;;1.30;;
15126;SDS011;7664;52.008;4.748;2023-12-22T10:26:13;4.40;;;1.33;;
15126;SDS011;7664;52.008;4.748;2023-12-22T10:28:43;10.05;;;1.77;;
15126;SDS011;7664;52.008;4.748;2023-12-22T10:31:11;4.28;;;1.30;;
15126;SDS011;7664;52.008;4.748;2023-12-22T10:33:41;3.30;;;1.02;;
15126;SDS011;7664;52.008;4.748;2023-12-22T10:36:10;4.50;;;1.13;;
15126;SDS011;7664;52.008;4.748;2023-12-22T10:38:39;7.88;;;1.30;;
15126;SDS011;7664;52.008;4.748;2023-12-22T10:41:09;9.23;;;1.70;;
15126;SDS011;7664;52.008;4.748;2023-12-22T10:43:38;8.90;;;1.63;;
15126;SDS011;7664;52.008;4.748;2023-12-22T10:46:06;8.93;;;1.92;;
15126;SDS011;7664;52.008;4.748;2023-12-22T10:48:37;5.07;;;2.00;;
15126;SDS011;7664;52.008;4.748;2023-12-22T10:51:10;6.93;;;1.67;;
15126;SDS011;7664;52.008;4.748;2023-12-22T10:53:40;6.93;;;1.40;;
15126;SDS011;7664;52.008;4.748;2023-12-22T10:56:09;6.82;;;1.70;;
15126;SDS011;7664;52.008;4.748;2023-12-22T10:58:38;8.55;;;1.20;;
15126;SDS011;7664;52.008;4.748;2023-12-22T11:01:07;5.68;;;1.50;;
15126;SDS011;7664;52.008;4.748;2023-12-22T11:03:40;5.22;;;1.55;;
15126;SDS011;7664;52.008;4.748;2023-12-22T11:06:13;9.15;;;1.75;;
15126;SDS011;7664;52.008;4.748;2023-12-22T11:08:44;7.03;;;2.00;;
15126;SDS011;7664;52.008;4.748;2023-12-22T11:11:16;5.72;;;1.83;;
15126;SDS011;7664;52.008;4.748;2023-12-22T11:13:52;3.67;;;1.33;;
15126;SDS011;7664;52.008;4.748;2023-12-22T11:16:24;4.95;;;1.67;;
15126;SDS011;7664;52.008;4.748;2023-12-22T11:18:52;9.30;;;1.55;;
15126;SDS011;7664;52.008;4.748;2023-12-22T11:21:23;5.88;;;1.58;;
15126;SDS011;7664;52.008;4.748;2023-12-22T11:23:53;3.95;;;1.45;;
15126;SDS011;7664;52.008;4.748;2023-12-22T11:26:22;7.25;;;1.50;;
15126;SDS011;7664;52.008;4.748;2023-12-22T11:28:51;6.38;;;1.40;;
15126;SDS011;7664;52.008;4.748;2023-12-22T11:31:20;7.78;;;1.55;;
15126;SDS011;7664;52.008;4.748;2023-12-22T11:33:49;7.57;;;1.45;;
15126;SDS011;7664;52.008;4.748;2023-12-22T11:36:34;6.55;;;1.70;;
15126;SDS011;7664;52.008;4.748;2023-12-22T11:39:06;12.30;;;1.88;;
15126;SDS011;7664;52.008;4.748;2023-12-22T11:41:35;8.60;;;1.88;;
15126;SDS011;7664;52.008;4.748;2023-12-22T11:44:05;6.57;;;1.38;;
15126;SDS011;7664;52.008;4.748;2023-12-22T11:46:34;9.43;;;1.63;;
15126;SDS011;7664;52.008;4.748;2023-12-22T11:49:03;4.95;;;2.00;;
15126;SDS011;7664;52.008;4.748;2023-12-22T11:51:32;7.95;;;1.65;;
15126;SDS011;7664;52.008;4.748;2023-12-22T11:54:02;9.35;;;1.80;;
15126;SDS011;7664;52.008;4.748;2023-12-22T11:56:30;6.57;;;1.50;;
15126;SDS011;7664;52.008;4.748;2023-12-22T11:58:58;4.18;;;1.58;;
15126;SDS011;7664;52.008;4.748;2023-12-22T12:01:28;7.50;;;1.77;;
15126;SDS011;7664;52.008;4.748;2023-12-22T12:04:00;6.97;;;1.65;;
15126;SDS011;7664;52.008;4.748;2023-12-22T12:06:31;8.02;;;1.80;;
15126;SDS011;7664;52.008;4.748;2023-12-22T12:09:05;7.22;;;1.85;;
15126;SDS011;7664;52.008;4.748;2023-12-22T12:14:41;3.58;;;1.17;;
15126;SDS011;7664;52.008;4.748;2023-12-22T12:17:10;5.40;;;1.52;;
15126;SDS011;7664;52.008;4.748;2023-12-22T12:19:38;5.22;;;1.40;;
15126;SDS011;7664;52.008;4.748;2023-12-22T12:22:08;6.80;;;2.13;;
15126;SDS011;7664;52.008;4.748;2023-12-22T12:24:40;7.70;;;2.05;;
15126;SDS011;7664;52.008;4.748;2023-12-22T12:27:08;6.70;;;1.75;;
15126;SDS011;7664;52.008;4.748;2023-12-22T12:29:37;5.18;;;2.38;;
15126;SDS011;7664;52.008;4.748;2023-12-22T12:32:09;9.32;;;1.90;;
15126;SDS011;7664;52.008;4.748;2023-12-22T12:34:42;7.95;;;2.08;;
15126;SDS011;7664;52.008;4.748;2023-12-22T12:37:10;6.72;;;1.92;;
15126;SDS011;7664;52.008;4.748;2023-12-22T12:39:41;9.85;;;1.95;;
15126;SDS011;7664;52.008;4.748;2023-12-22T12:42:11;5.05;;;1.58;;
15126;SDS011;7664;52.008;4.748;2023-12-22T12:44:43;5.13;;;1.40;;
15126;SDS011;7664;52.008;4.748;2023-12-22T12:47:14;7.32;;;1.30;;
15126;SDS011;7664;52.008;4.748;2023-12-22T12:49:43;4.35;;;1.20;;
15126;SDS011;7664;52.008;4.748;2023-12-22T12:52:12;7.60;;;1.55;;
15126;SDS011;7664;52.008;4.748;2023-12-22T12:54:42;7.25;;;1.52;;
15126;SDS011;7664;52.008;4.748;2023-12-22T12:57:13;9.63;;;1.88;;
15126;SDS011;7664;52.008;4.748;2023-12-22T12:59:44;8.57;;;1.58;;
15126;SDS011;7664;52.008;4.748;2023-12-22T13:02:14;7.82;;;1.95;;
15126;SDS011;7664;52.008;4.748;2023-12-22T13:04:43;3.53;;;1.45;;
15126;SDS011;7664;52.008;4.748;2023-12-22T13:07:12;6.10;;;1.48;;
15126;SDS011;7664;52.008;4.748;2023-12-22T13:09:40;9.90;;;1.90;;
15126;SDS011;7664;52.008;4.748;2023-12-22T13:12:10;7.68;;;2.45;;
15126;SDS011;7664;52.008;4.748;2023-12-22T13:14:39;8.95;;;1.65;;
15126;SDS011;7664;52.008;4.748;2023-12-22T13:17:07;5.53;;;1.95;;
15126;SDS011;7664;52.008;4.748;2023-12-22T13:19:37;5.07;;;1.70;;
15126;SDS011;7664;52.008;4.748;2023-12-22T13:22:06;6.20;;;1.88;;
15126;SDS011;7664;52.008;4.748;2023-12-22T13:24:35;9.80;;;2.47;;
15126;SDS011;7664;52.008;4.748;2023-12-22T13:27:04;8.10;;;2.03;;
15126;SDS011;7664;52.008;4.748;2023-12-22T13:29:43;7.10;;;1.83;;
15126;SDS011;7664;52.008;4.748;2023-12-22T13:32:15;12.07;;;2.40;;
15126;SDS011;7664;52.008;4.748;2023-12-22T13:34:50;8.90;;;1.92;;
15126;SDS011;7664;52.008;4.748;2023-12-22T13:37:20;10.43;;;2.25;;
15126;SDS011;7664;52.008;4.748;2023-12-22T13:39:50;7.85;;;1.90;;
15126;SDS011;7664;52.008;4.748;2023-12-22T13:42:20;11.80;;;2.25;;
15126;SDS011;7664;52.008;4.748;2023-12-22T13:44:49;8.52;;;2.38;;
15126;SDS011;7664;52.008;4.748;2023-12-22T13:47:19;5.47;;;1.70;;
15126;SDS011;7664;52.008;4.748;2023-12-22T13:49:47;7.55;;;2.13;;
15126;SDS011;7664;52.008;4.748;2023-12-22T13:52:25;9.88;;;2.33;;
15126;SDS011;7664;52.008;4.748;2023-12-22T13:54:55;9.02;;;2.03;;
15126;SDS011;7664;52.008;4.748;2023-12-22T13:57:28;6.00;;;2.42;;
15126;SDS011;7664;52.008;4.748;2023-12-22T13:59:57;10.15;;;2.15;;
15126;SDS011;7664;52.008;4.748;2023-12-22T14:02:25;8.70;;;2.22;;
15126;SDS011;7664;52.008;4.748;2023-12-22T14:04:54;9.07;;;2.28;;
15126;SDS011;7664;52.008;4.748;2023-12-22T14:07:23;8.85;;;2.28;;
15126;SDS011;7664;52.008;4.748;2023-12-22T14:09:51;9.50;;;2.80;;
15126;SDS011;7664;52.008;4.748;2023-12-22T14:12:19;9.88;;;2.10;;
15126;SDS011;7664;52.008;4.748;2023-12-22T14:14:58;11.55;;;2.70;;
15126;SDS011;7664;52.008;4.748;2023-12-22T14:17:27;8.73;;;2.42;;
15126;SDS011;7664;52.008;4.748;2023-12-22T14:19:57;11.48;;;2.63;;
15126;SDS011;7664;52.008;4.748;2023-12-22T14:22:26;5.68;;;2.05;;
15126;SDS011;7664;52.008;4.748;2023-12-22T14:24:54;9.18;;;2.35;;
15126;SDS011;7664;52.008;4.748;2023-12-22T14:27:22;10.68;;;2.10;;
15126;SDS011;7664;52.008;4.748;2023-12-22T14:29:51;13.25;;;2.55;;
15126;SDS011;7664;52.008;4.748;2023-12-22T14:32:20;9.05;;;2.35;;
15126;SDS011;7664;52.008;4.748;2023-12-22T14:34:49;8.18;;;2.45;;
15126;SDS011;7664;52.008;4.748;2023-12-22T14:37:18;11.45;;;3.17;;
15126;SDS011;7664;52.008;4.748;2023-12-22T14:39:46;9.45;;;2.72;;
15126;SDS011;7664;52.008;4.748;2023-12-22T14:42:15;10.32;;;2.20;;
15126;SDS011;7664;52.008;4.748;2023-12-22T14:44:43;11.90;;;2.75;;
15126;SDS011;7664;52.008;4.748;2023-12-22T14:47:11;14.80;;;2.40;;
15126;SDS011;7664;52.008;4.748;2023-12-22T14:49:41;12.73;;;2.50;;
15126;SDS011;7664;52.008;4.748;2023-12-22T14:52:09;9.02;;;2.13;;
15126;SDS011;7664;52.008;4.748;2023-12-22T14:54:37;10.65;;;2.28;;
15126;SDS011;7664;52.008;4.748;2023-12-22T14:57:06;14.85;;;2.38;;
15126;SDS011;7664;52.008;4.748;2023-12-22T14:59:34;12.93;;;2.97;;
15126;SDS011;7664;52.008;4.748;2023-12-22T15:02:02;9.45;;;2.97;;
15126;SDS011;7664;52.008;4.748;2023-12-22T15:04:31;9.18;;;2.60;;
15126;SDS011;7664;52.008;4.748;2023-12-22T15:07:02;10.52;;;2.30;;
15126;SDS011;7664;52.008;4.748;2023-12-22T15:09:30;14.02;;;3.15;;
15126;SDS011;7664;52.008;4.748;2023-12-22T15:11:58;8.40;;;2.55;;